Data for 07/30/2015

Time Sea-Level Adjusted Pressure Absolute Pressure Temperature Relative Humidity Dew Point   
(mb) (inHg) (mb) (inHg) (C) (F) (%) (C) (F)
00:05 1027 30.33 856 25.28 14.2 57.5 50 4 39.1
00:10 1027 30.33 856 25.28 14.1 57.4 51 4.2 39.6
00:15 1027 30.33 856 25.28 13.8 56.8 52 4.3 39.7
00:20 1027 30.33 856 25.28 13.5 56.3 53 4.3 39.7
00:25 1027 30.33 856 25.28 13.2 55.8 54 4.2 39.6
00:30 1027 30.33 856 25.28 13 55.4 54 3.9 39.1
00:35 1027 30.33 856 25.28 13.1 55.6 54 4.1 39.3
00:40 1027 30.33 856 25.28 13 55.4 55 4.2 39.5
00:45 1027 30.33 856 25.28 12.8 55.1 55 4.2 39.5
00:50 1027 30.33 856 25.28 12.7 54.8 56 4.2 39.5
00:55 1027 30.33 856 25.28 12.6 54.6 56 4.2 39.5
01:00 1027 30.33 856 25.28 12.5 54.6 56 4.1 39.4
01:05 1027 30.33 856 25.28 12.5 54.5 55 3.7 38.6
01:10 1027 30.33 856 25.28 12.8 55.1 54 3.8 38.9
01:15 1027 30.33 856 25.28 12.8 55.1 54 3.8 38.8
01:20 1027 30.33 856 25.28 12.9 55.3 54 3.8 38.9
01:25 1027 30.33 856 25.28 12.9 55.1 53 3.5 38.4
01:30 1027 30.33 856 25.28 13 55.4 52 3.6 38.4
01:35 1027 30.33 856 25.28 13.1 55.5 54 3.9 39.1
01:40 1027 30.33 856 25.28 13 55.3 52 3.4 38.1
01:45 1027 30.33 856 25.28 13.2 55.8 51 3.4 38
01:50 1027 30.33 856 25.28 13.4 56 52 3.7 38.6
01:55 1027 30.33 856 25.28 13.1 55.5 52 3.5 38.3
02:00 1027 30.33 856 25.28 13 55.4 52 3.5 38.3
02:05 1027 30.33 856 25.28 13 55.3 52 3.4 38.2
02:10 1027 30.33 856 25.28 12.9 55.3 53 3.7 38.7
02:15 1027 30.33 856 25.28 12.5 54.6 55 3.8 38.8
02:20 1027 30.33 856 25.28 12.3 54.1 55 3.5 38.3
02:25 1027 30.33 856 25.28 12.6 54.6 53 3.4 38.2
02:30 1027 30.33 856 25.28 12.7 54.8 54 3.7 38.7
02:35 1027 30.33 856 25.28 12.4 54.3 56 3.9 39.1
02:40 1027 30.33 856 25.28 12.1 53.8 56 3.7 38.6
02:45 1027 30.33 857 25.31 12.1 53.8 55 3.4 38.1
02:50 1027 30.33 857 25.31 12.2 54 54 3.3 37.9
02:55 1027 30.33 857 25.31 12.3 54.2 55 3.5 38.3
03:00 1027 30.33 857 25.31 12.3 54.2 55 3.6 38.4
03:05 1027 30.33 857 25.31 12.2 54 55 3.4 38.2
03:10 1027 30.33 857 25.31 12.2 54 54 3.2 37.8
03:15 1027 30.33 857 25.31 12.4 54.3 54 3.5 38.3
03:20 1027 30.33 857 25.31 12.4 54.2 53 3.2 37.8
03:25 1027 30.33 857 25.31 12.5 54.6 53 3.2 37.7
03:30 1027 30.33 857 25.31 12.4 54.4 56 3.8 38.9
03:35 1027 30.33 857 25.31 12 53.7 56 3.6 38.4
03:40 1027 30.33 857 25.31 12.1 53.7 55 3.3 38
03:45 1027 30.33 857 25.31 12.2 54 54 3.3 37.9
03:50 1027 30.33 857 25.31 12.5 54.4 52 3 37.4
03:55 1027 30.33 857 25.31 12.5 54.5 53 3.3 37.9
04:00 1027 30.33 857 25.31 12.3 54.1 54 3.4 38.1
04:05 1027 30.33 857 25.31 12.2 53.9 54 3.3 37.9
04:10 1027 30.33 857 25.31 12 53.6 55 3.4 38.1
04:15 1027 30.33 857 25.31 11.9 53.4 56 3.4 38.2
04:20 1027 30.33 857 25.31 11.7 53.1 55 3.1 37.6
04:25 1027 30.33 857 25.31 12.1 53.8 54 3.2 37.8
04:30 1027 30.33 857 25.31 12.1 53.7 54 3.1 37.7
04:35 1027 30.33 857 25.31 12.2 53.9 54 3.1 37.6
04:40 1028 30.36 857 25.31 12.1 53.8 55 3.4 38.1
04:45 1028 30.36 857 25.31 11.9 53.5 55 3.1 37.7
04:50 1028 30.36 857 25.31 12.1 53.7 55 3.3 37.9
04:55 1028 30.36 857 25.31 11.9 53.4 56 3.4 38.1
05:00 1028 30.36 857 25.31 11.6 52.9 58 3.6 38.5
05:05 1028 30.36 857 25.31 11.3 52.4 58 3.5 38.3
05:10 1028 30.36 857 25.31 11.2 52.1 58 3.3 38
05:15 1028 30.36 857 25.31 11.4 52.5 57 3.1 37.6
05:20 1028 30.36 857 25.31 11.8 53.2 55 3.1 37.6
05:25 1028 30.36 857 25.31 12.1 53.7 54 3.1 37.7
05:30 1028 30.36 857 25.31 12.1 53.8 56 3.5 38.4
05:35 1028 30.36 857 25.31 12 53.5 55 3.3 38
05:40 1028 30.36 857 25.31 12.1 53.7 55 3.5 38.3
05:45 1028 30.36 857 25.31 12 53.6 56 3.5 38.4
05:50 1028 30.36 857 25.31 12 53.6 55 3.3 37.9
05:55 1028 30.36 857 25.31 12.4 54.4 53 3.2 37.7
06:00 1028 30.36 857 25.31 12.8 55 53 3.4 38.2
06:05 1028 30.36 857 25.31 12.9 55.1 53 3.6 38.5
06:10 1028 30.36 857 25.31 12.9 55.3 53 3.8 38.8
06:15 1028 30.36 857 25.31 13.2 55.7 53 3.9 39
06:20 1028 30.36 857 25.31 13.4 56.2 53 4 39.3
06:25 1028 30.36 857 25.31 13.7 56.7 52 4.1 39.3
06:30 1028 30.36 857 25.31 13.9 57.1 50 3.9 39
06:35 1028 30.36 857 25.31 14.1 57.3 52 4.3 39.8
06:40 1028 30.36 857 25.31 14.2 57.6 52 4.5 40.1
06:45 1028 30.36 857 25.31 14.7 58.4 48 3.8 38.8
06:50 1028 30.36 857 25.31 15.1 59.2 46 3.6 38.6
06:55 1028 30.36 857 25.31 15.5 60 46 4.1 39.4
07:00 1028 30.36 857 25.31 15.9 60.6 47 4.8 40.7
07:05 1028 30.36 857 25.31 15.8 60.4 48 4.9 40.8
07:10 1028 30.36 857 25.31 16 60.9 45 4.2 39.6
07:15 1028 30.36 857 25.31 16.6 61.8 45 4.6 40.2
07:20 1028 30.36 858 25.34 17 62.6 44 4.8 40.6
07:25 1028 30.36 858 25.34 17.3 63.2 42 4.4 40
07:30 1028 30.36 858 25.34 17.6 63.7 41 4.5 40
07:35 1028 30.36 858 25.34 17.9 64.2 42 4.8 40.7
07:40 1028 30.36 858 25.34 18.1 64.6 41 4.9 40.8
07:45 1029 30.39 858 25.34 18.1 64.6 43 5.6 42.1
07:50 1029 30.39 858 25.34 17.8 64 44 5.4 41.7
07:55 1029 30.39 858 25.34 17.7 63.8 44 5.3 41.6
08:00 1029 30.39 858 25.34 17.5 63.5 44 5.2 41.3
08:05 1029 30.39 858 25.34 17.9 64.2 43 5.1 41.2
08:10 1029 30.39 858 25.34 18 64.5 41 4.8 40.7
08:15 1029 30.39 858 25.34 17.9 64.1 41 4.7 40.4
08:20 1029 30.39 858 25.34 18.2 64.7 41 4.7 40.5
08:25 1029 30.39 858 25.34 18.5 65.3 39 4.5 40.1
08:30 1029 30.39 858 25.34 19 66.2 39 5.1 41.1
08:35 1029 30.39 858 25.34 19.7 67.4 37 4.9 40.9
08:40 1029 30.39 858 25.34 19.1 66.4 35 3.6 38.4
08:45 1029 30.39 858 25.34 18.9 65.9 35 3.3 37.9
08:50 1028 30.36 858 25.34 19.2 66.5 36 3.8 38.9
08:55 1028 30.36 858 25.34 20.1 68.1 32 3.1 37.7
09:00 1028 30.36 858 25.34 20.8 69.5 36 5.3 41.6
09:05 1028 30.36 858 25.34 20.1 68.2 34 3.8 38.9
09:10 1028 30.36 858 25.34 20.4 68.7 35 4.6 40.2
09:15 1028 30.36 858 25.34 20.6 69.1 33 3.9 39.1
09:20 1028 30.36 858 25.34 20.3 68.5 34 4 39.3
09:25 1028 30.36 858 25.34 21 69.8 32 4 39.3
09:30 1028 30.36 858 25.34 20.6 69 32 3.5 38.3
09:35 1028 30.36 857 25.31 21.7 71.1 30 3.5 38.3
09:40 1028 30.36 857 25.31 22.7 72.8 30 4.3 39.8
09:45 1028 30.36 857 25.31 23 73.5 30 4.7 40.5
09:50 1028 30.36 857 25.31 22.8 73 29 3.9 39.1
09:55 1028 30.36 857 25.31 22.5 72.4 28 3.4 38.1
10:00 1028 30.36 857 25.31 21.9 71.5 28 2.9 37.3
10:05 1028 30.36 857 25.31 22.4 72.2 27 2.9 37.2
10:10 1028 30.36 857 25.31 22.7 72.9 28 3.5 38.3
10:15 1028 30.36 857 25.31 23.3 74 25 2.6 36.6
10:20 1028 30.36 857 25.31 23.1 73.6 28 3.6 38.4
10:25 1028 30.36 857 25.31 23.2 73.8 29 4.6 40.2
10:30 1028 30.36 857 25.31 23.1 73.6 28 3.9 39
10:35 1028 30.36 857 25.31 23.6 74.6 29 4.8 40.6
10:40 1028 30.36 857 25.31 23.2 73.7 29 4.3 39.7
10:45 1028 30.36 857 25.31 23.7 74.7 28 4.4 39.9
10:50 1028 30.36 857 25.31 24.5 76 26 3.9 39.1
10:55 1028 30.36 857 25.31 24.6 76.4 26 4.3 39.8
11:00 1028 30.36 857 25.31 24.7 76.5 27 4.7 40.4
11:05 1028 30.36 857 25.31 25.2 77.4 25 4.3 39.8
11:10 1028 30.36 857 25.31 24.8 76.6 27 4.6 40.3
11:15 1028 30.36 857 25.31 24.8 76.7 27 4.9 40.9
11:20 1028 30.36 857 25.31 24.8 76.6 26 4.3 39.8
11:25 1028 30.36 857 25.31 25 77 26 4.6 40.4
11:30 1028 30.36 857 25.31 25.4 77.7 26 4.7 40.4
11:35 1028 30.36 857 25.31 25.5 78 25 4.2 39.6
11:40 1028 30.36 857 25.31 25.7 78.2 25 4.2 39.6
11:45 1028 30.36 857 25.31 26 78.8 25 5 40.9
11:50 1028 30.36 857 25.31 25.6 78 24 3.8 38.9
11:55 1028 30.36 857 25.31 26.2 79.1 23 4 39.1
12:00 1028 30.36 857 25.31 26 78.8 24 4.3 39.7
12:05 1028 30.36 857 25.31 25.7 78.2 25 4.7 40.4
12:10 1028 30.36 857 25.31 26.2 79.2 24 4.3 39.7
12:15 1028 30.36 857 25.31 26.7 80.1 23 4.2 39.6
12:20 1028 30.36 857 25.31 27.3 81.2 22 4 39.2
12:25 1028 30.36 857 25.31 26.1 79 24 4.5 40.1
12:30 1027 30.33 857 25.31 26.7 80.1 22 3.7 38.6
12:35 1027 30.33 857 25.31 26.4 79.6 23 3.8 38.9
12:40 1027 30.33 857 25.31 25.6 78.2 24 4 39.1
12:45 1027 30.33 857 25.31 26.4 79.5 22 3.2 37.7
12:50 1027 30.33 857 25.31 26.8 80.3 20 2.1 35.9
12:55 1027 30.33 856 25.28 27.3 81.1 20 2.4 36.3
13:00 1027 30.33 856 25.28 27.6 81.7 19 2.4 36.4
13:05 1027 30.33 856 25.28 27.7 81.9 20 2.9 37.2
13:10 1027 30.33 856 25.28 27.6 81.7 19 2.3 36.1
13:15 1027 30.33 856 25.28 28.1 82.5 21 3.8 38.8
13:20 1027 30.33 856 25.28 27.8 82 21 3.7 38.6
13:25 1027 30.33 856 25.28 28.1 82.6 20 3.2 37.8
13:30 1027 30.33 856 25.28 28.7 83.6 19 3 37.3
13:35 1027 30.33 856 25.28 28.9 84 18 2.8 37.1
13:40 1027 30.33 856 25.28 29.2 84.5 18 2.7 36.8
13:45 1027 30.33 856 25.28 29.1 84.3 18 2.9 37.1
13:50 1027 30.33 856 25.28 28.8 83.8 18 2.1 35.8
13:55 1027 30.33 856 25.28 28.3 83 19 3 37.3
14:00 1027 30.33 856 25.28 28.5 83.2 19 2.8 37
14:05 1027 30.33 856 25.28 28.3 83 19 3 37.4
14:10 1027 30.33 856 25.28 28.3 82.9 18 1.8 35.2
14:15 1027 30.33 856 25.28 27.7 81.9 19 2.2 35.9
14:20 1027 30.33 856 25.28 27.4 81.2 21 3.1 37.6
14:25 1027 30.33 856 25.28 28.2 82.7 16 0.7 33.2
14:30 1027 30.33 856 25.28 28.9 83.9 17 2.1 35.7
14:35 1027 30.33 856 25.28 29.2 84.6 19 3.2 37.8
14:40 1027 30.33 856 25.28 28.1 82.6 18 2 35.6
14:45 1026 30.3 856 25.28 28.3 82.9 18 2.3 36.2
14:50 1026 30.3 856 25.28 28.3 82.9 18 2.3 36.1
14:55 1026 30.3 856 25.28 27.9 82.2 20 2.9 37.1
15:00 1026 30.3 856 25.28 28.1 82.7 19 2.9 37.3
15:05 1026 30.3 856 25.28 28.8 83.9 19 3.1 37.6
15:10 1026 30.3 856 25.28 29 84.3 18 2.8 37
15:15 1026 30.3 855 25.25 29.1 84.3 18 2.7 36.9
15:20 1026 30.3 855 25.25 28.4 83.1 19 2.9 37.3
15:25 1026 30.3 855 25.25 28.7 83.7 19 2.8 37.1
15:30 1026 30.3 855 25.25 28.6 83.4 18 1.9 35.4
15:35 1026 30.3 855 25.25 28.9 84 17 1.6 35
15:40 1026 30.3 855 25.25 28.3 82.9 19 2.4 36.4
15:45 1026 30.3 855 25.25 28.2 82.8 19 2.8 37
15:50 1026 30.3 855 25.25 28.7 83.6 18 2 35.6
15:55 1026 30.3 855 25.25 28.5 83.4 18 2.1 35.8
16:00 1026 30.3 855 25.25 28 82.5 17 1.2 34.1
16:05 1026 30.3 855 25.25 27.8 82.1 17 0.4 32.8
16:10 1026 30.3 855 25.25 28.3 82.9 18 2.1 35.7
16:15 1026 30.3 855 25.25 28.4 83.1 17 1.5 34.7
16:20 1026 30.3 855 25.25 28.5 83.3 17 1.7 35.1
16:25 1026 30.3 855 25.25 28.7 83.7 17 1.4 34.5
16:30 1026 30.3 855 25.25 28.3 83 17 1.4 34.6
16:35 1026 30.3 855 25.25 27.9 82.2 18 1.5 34.7
16:40 1026 30.3 855 25.25 28 82.4 17 1.1 33.9
16:45 1026 30.3 855 25.25 28.2 82.7 17 1.4 34.5
16:50 1026 30.3 855 25.25 28 82.4 16 -0.2 31.6
16:55 1026 30.3 855 25.25 28.1 82.6 18 1.7 35.1
17:00 1026 30.3 855 25.25 28.8 83.8 16 0.9 33.7
17:05 1026 30.3 855 25.25 28.7 83.7 16 0.8 33.5
17:10 1026 30.3 855 25.25 28.1 82.5 17 1.4 34.4
17:15 1026 30.3 855 25.25 27.8 82 18 1.2 34.2
17:20 1026 30.3 855 25.25 28 82.4 18 1.9 35.4
17:25 1026 30.3 855 25.25 28.2 82.8 18 1.9 35.4
17:30 1025 30.27 855 25.25 28.4 83.2 18 1.9 35.3
17:35 1025 30.27 855 25.25 28.7 83.6 16 0.6 33.1
17:40 1025 30.27 855 25.25 28.1 82.6 17 1.1 34
17:45 1025 30.27 855 25.25 27.9 82.1 17 0.8 33.4
17:50 1025 30.27 855 25.25 27.8 82.1 17 0.6 33.2
17:55 1025 30.27 855 25.25 27.7 81.8 18 1.6 35
18:00 1025 30.27 855 25.25 27.7 81.9 17 0.9 33.6
18:05 1025 30.27 855 25.25 27.6 81.7 18 1.3 34.3
18:10 1025 30.27 855 25.25 27.4 81.2 18 1 33.8
18:15 1025 30.27 855 25.25 27.1 80.8 18 1 33.8
18:20 1025 30.27 855 25.25 27 80.6 18 0.6 33.2
18:25 1025 30.27 854 25.22 27.1 80.8 18 0.6 33.2
18:30 1025 30.27 854 25.22 27 80.6 18 0.9 33.7
18:35 1025 30.27 854 25.22 27 80.7 18 0.6 33.1
18:40 1025 30.27 854 25.22 27 80.6 17 0.4 32.7
18:45 1025 30.27 854 25.22 26.8 80.3 19 1.3 34.4
18:50 1025 30.27 854 25.22 26.6 79.9 19 1.1 34
18:55 1025 30.27 854 25.22 26.5 79.8 18 0.4 32.8
19:00 1025 30.27 854 25.22 26.5 79.7 18 0.5 32.9
19:05 1025 30.27 854 25.22 26.5 79.6 18 0.3 32.5
19:10 1025 30.27 854 25.22 26.4 79.6 18 0.3 32.5
19:15 1025 30.27 854 25.22 26.4 79.5 17 -0 31.9
19:20 1025 30.27 854 25.22 26.3 79.4 18 0.1 32.3
19:25 1025 30.27 854 25.22 26.3 79.3 19 0.8 33.4
19:30 1025 30.27 854 25.22 26 78.9 21 2.3 36.1
19:35 1025 30.27 854 25.22 25.8 78.4 27 5.8 42.4
19:40 1025 30.27 854 25.22 25 77.1 30 6.3 43.4
19:45 1025 30.27 854 25.22 24.1 75.4 33 7.2 45
19:50 1025 30.27 855 25.25 23.2 73.8 37 8.1 46.6
19:55 1025 30.27 855 25.25 22.6 72.7 37 7.5 45.6
20:00 1025 30.27 855 25.25 22.3 72.1 35 6.5 43.6
20:05 1025 30.27 855 25.25 21.8 71.2 40 7.9 46.3
20:10 1025 30.27 855 25.25 21.1 69.9 43 8.3 47
20:15 1025 30.27 855 25.25 20.5 68.9 43 7.7 45.8
20:20 1025 30.27 855 25.25 20.3 68.6 41 6.7 44.1
20:25 1025 30.27 855 25.25 20.2 68.4 41 6.8 44.3
20:30 1025 30.27 855 25.25 19.9 67.8 41 6.5 43.7
20:35 1026 30.3 855 25.25 19.7 67.5 41 6.3 43.4
20:40 1026 30.3 855 25.25 19.5 67.1 38 5.1 41.2
20:45 1026 30.3 855 25.25 19.4 67 39 5.2 41.4
20:50 1026 30.3 855 25.25 19.6 67.2 37 4.7 40.5
20:55 1026 30.3 855 25.25 19.8 67.6 37 4.8 40.6
21:00 1026 30.3 855 25.25 19.7 67.5 38 5.3 41.5
21:05 1026 30.3 855 25.25 19.4 66.9 39 5.3 41.5
21:10 1026 30.3 855 25.25 19.1 66.3 40 5.2 41.3
21:15 1026 30.3 855 25.25 18.9 66 39 4.7 40.4
21:20 1026 30.3 855 25.25 19 66.3 38 4.4 40
21:25 1026 30.3 855 25.25 19.2 66.5 37 4.4 40
21:30 1026 30.3 855 25.25 19.1 66.5 38 4.8 40.6
21:35 1026 30.3 855 25.25 18.9 65.9 39 4.8 40.6
21:40 1026 30.3 855 25.25 18.7 65.6 40 4.8 40.7
21:45 1026 30.3 855 25.25 18.6 65.4 39 4.5 40.1
21:50 1026 30.3 855 25.25 18.5 65.3 40 4.8 40.6
21:55 1026 30.3 855 25.25 18.4 65.2 38 4.1 39.3
22:00 1026 30.3 855 25.25 18.6 65.4 39 4.4 39.9
22:05 1026 30.3 855 25.25 18.4 65 39 4.4 39.9
22:10 1026 30.3 855 25.25 18.2 64.7 39 4.2 39.6
22:15 1026 30.3 855 25.25 18.2 64.7 40 4.3 39.7
22:20 1026 30.3 855 25.25 18.2 64.7 41 4.7 40.4
22:25 1026 30.3 855 25.25 18.1 64.5 40 4.3 39.7
22:30 1026 30.3 855 25.25 17.9 64.3 39 4 39.3
22:35 1026 30.3 855 25.25 17.8 64 40 4 39.2
22:40 1026 30.3 855 25.25 17.8 64 44 5.5 41.9
22:45 1026 30.3 855 25.25 17.9 64.1 39 3.7 38.6
22:50 1026 30.3 855 25.25 17.8 64.1 39 3.8 38.8
22:55 1026 30.3 855 25.25 17.8 64.1 39 3.8 38.9
23:00 1026 30.3 855 25.25 17.9 64.1 39 3.8 38.9
23:05 1026 30.3 855 25.25 17.9 64.2 39 3.8 38.9
23:10 1026 30.3 855 25.25 17.9 64.3 38 3.7 38.6
23:15 1026 30.3 855 25.25 17.9 64.1 38 3.6 38.5
23:20 1026 30.3 855 25.25 17.8 64 38 3.4 38.1
23:25 1026 30.3 855 25.25 17.9 64.2 37 3.3 37.9
23:30 1026 30.3 855 25.25 18 64.4 38 3.5 38.4
23:35 1026 30.3 855 25.25 18.1 64.6 37 3.2 37.8
23:40 1026 30.3 855 25.25 18.1 64.6 37 3.3 38
23:45 1026 30.3 855 25.25 18.1 64.6 37 3.3 37.9
23:50 1026 30.3 855 25.25 18.2 64.7 36 2.8 37.1
23:55 1026 30.3 855 25.25 18.2 64.8 36 3 37.4
24:00 1026 30.3 855 25.25 18.1 64.6 37 3.3 38